KSMF Airport Information

Runway Information
Runway 16L Length 8601 ft width 150 ft
Elevation 27 ft Threshold 0 ft Heading 181
Runway 34R Length 8601 ft Width 150 ft
Elevation 22 ft Threshold 0 ft Heading 1
Runway 16R Length 8600 ft width 150 ft
Elevation 25 ft Threshold 0 ft Heading 181
Runway 34L Length 8600 ft Width 150 ft
Elevation 22 ft Threshold 0 ft Heading 1
Airport Frequencies
Type A/D Name NORCAL APP Frequency 25.91 MHZ
Type A/D Name NORCAL APP Frequency 125.25 MHZ
Type ATIS Name ATIS Frequency 126.75 MHZ
Type CLD Name CLNC DEL Frequency 121.1 MHZ
Type GND Name GND Frequency 121.7 MHZ
Type TWR Name CAPITOL TW Frequency 125.7 MHZ
Type UNIC Name UNICOM Frequency 122.95 MHZ
Airport Navaids
Type NDB Name Lanee Frequency 400 KHZ
Type NDB Name Metre Frequency 230 KHZ
Airport Weather Information & NOTAM
ADDS - METARS form results

(1905 UTC 17 February 2019)
Data provider http://aviationweather.gov/metar/data/
 
METAR text: KSMF 171853Z 34010KT 10SM SCT019 BKN026 07/03 A3004 RMK AO2 SLP172 T00670033
Conditions at: KSMF (SACRAMENTO/METRO, CA, US) observed 1853 UTC 17 February 2019
Temperature: 6.7°C (44°F)
Dewpoint: 3.3°C (38°F) [RH = 79%]
Pressure (altimeter): 30.04 inches Hg (1017.4 mb)
[Sea-level pressure: 1017.2 mb]
Winds: from the NNW (340 degrees) at 12 MPH (10 knots; 5.1 m/s)
Visibility: 10 or more miles (16+ km)
Ceiling: 2600 feet AGL
Clouds: scattered clouds at 1900 feet AGL
broken clouds at 2600 feet AGL
Weather: no significant weather observed at this time

METAR text: KSMF 171845Z 36011KT 10SM FEW019 BKN026 07/03 A3004 RMK AO2 T00720033
Conditions at: KSMF (SACRAMENTO/METRO, CA, US) observed 1845 UTC 17 February 2019
Temperature: 7.2°C (45°F)
Dewpoint: 3.3°C (38°F) [RH = 76%]
Pressure (altimeter): 30.04 inches Hg (1017.4 mb)
Winds: from the N (360 degrees) at 13 MPH (11 knots; 5.7 m/s)
Visibility: 10 or more miles (16+ km)
Ceiling: 2600 feet AGL
Clouds: few clouds at 1900 feet AGL
broken clouds at 2600 feet AGL
Weather: no significant weather observed at this time

METAR text: KSMF 171818Z 32009KT 10SM SCT020 07/04 A3004 RMK AO2 T00720039
Conditions at: KSMF (SACRAMENTO/METRO, CA, US) observed 1818 UTC 17 February 2019
Temperature: 7.2°C (45°F)
Dewpoint: 3.9°C (39°F) [RH = 80%]
Pressure (altimeter): 30.04 inches Hg (1017.4 mb)
Winds: from the NW (320 degrees) at 10 MPH (9 knots; 4.6 m/s)
Visibility: 10 or more miles (16+ km)
Ceiling: at least 12,000 feet AGL
Clouds: scattered clouds at 2000 feet AGL
Weather: no significant weather observed at this time

Forecast for: KSMF (SACRAMENTO/METRO, CA, US)
Text: KSMF 171724Z 1718/1818 33010KT P6SM SCT015 BKN050
Forecast period: 1800 UTC 17 February 2019 to 0000 UTC 18 February 2019
Forecast type: FROM: standard forecast or significant change
Winds: from the NNW (330 degrees) at 12 MPH (10 knots; 5.1 m/s)
Visibility: 6 or more miles 10+ km)
Ceiling: 5000 feet AGL
Clouds: scattered clouds at 1500 feet AGL
broken clouds at 5000 feet AGL
Weather: no significant weather forecast for this period
Text: TEMPO 1718/1720 BKN015
Forecast period: 1800 to 2000 UTC 17 February 2019
Forecast type: TEMPORARY: The following changes expected for less than half the time period
Visibility: missing
Ceiling: 1500 feet AGL
Clouds: broken clouds at 1500 feet AGL
Weather: no significant weather forecast for this period
Text: FM180000 33010KT P6SM SCT250
Forecast period: 0000 to 1800 UTC 18 February 2019
Forecast type: FROM: standard forecast or significant change
Winds: from the NNW (330 degrees) at 12 MPH (10 knots; 5.1 m/s)
Visibility: 6 or more miles 10+ km)
Ceiling: at least 12,000 feet AGL
Clouds: scattered clouds at 25000 feet AGL
Weather: no significant weather forecast for this period